Agios Georgios I — SX9857 — position and weather

sailwx.info

Track history (hours):
 
Tides and Currents Weather Stations Pressure Air Temp Water Temp Dewpoint Dewpoint Depression Visibility Wind Speed Wind Dir Waves Ship Positions

Agios Georgios I

Last reported at 2014-Aug-01 04:33 UTC. Time now 2014-Aug-01 05:52 UTC.
Position N 37°17' E 025°02'.

Length 59 m; draft 5 m.

Type: Ship (hazmat cat B). MMSI: 239912000.

Date/timePositionNaut miles runAvg speedWind from/ knotsBaromVisibWave heightAir tempDewpointWater temp
2014-Aug-01 04:33N 37°17' E 025°02'9 8.6
2014-Aug-01 03:33N 37°25' E 024°58'2 2.2
2014-Aug-01 02:33N 37°26' E 024°56'0 0.0
2014-Aug-01 01:31N 37°26' E 024°56'0 0.0
2014-Aug-01 00:32N 37°26' E 024°56'0 0.0
2014-Jul-31 23:33N 37°26' E 024°56'0 0.0
2014-Jul-31 22:33N 37°26' E 024°56'0 0.0
2014-Jul-31 21:33N 37°26' E 024°56'0 0.0
2014-Jul-31 20:33N 37°26' E 024°56'0 0.0
2014-Jul-31 19:32N 37°26' E 024°56'2 2.3
2014-Jul-31 18:33N 37°28' E 024°58'8 7.5
2014-Jul-31 17:30N 37°32' E 024°49'9 9.5
2014-Jul-31 16:33N 37°32' E 024°38'9 8.9
2014-Jul-31 15:33N 37°31' E 024°27'10 8.9
2014-Jul-31 14:27N 37°31' E 024°15'8 8.8
2014-Jul-31 13:33N 37°32' E 024°05'8 5.3
2014-Jul-31 12:04N 37°32' E 023°55'4 6.9
2014-Jul-31 11:31N 37°36' E 023°55'9 8.7
2014-Jul-31 10:32N 37°39' E 023°44'8 8.3
2014-Jul-31 09:33N 37°46' E 023°39'9 8.5
2014-Jul-31 08:33N 37°54' E 023°35'4 3.5
2014-Jul-31 07:33N 37°57' E 023°35'0 0.0
2014-Jul-31 06:33N 37°57' E 023°35'0 0.0
2014-Jul-31 05:33N 37°57' E 023°35'0 0.0
2014-Jul-31 04:34N 37°57' E 023°35'0 0.0
2014-Jul-31 03:33N 37°57' E 023°35'0 0.2
2014-Jul-31 02:34N 37°57' E 023°35'0 0.0
2014-Jul-31 01:34N 37°57' E 023°35'0 0.0
2014-Jul-31 00:33N 37°57' E 023°35'0 0.0
2014-Jul-30 23:33N 37°57' E 023°35'0 0.0
2014-Jul-30 22:33N 37°57' E 023°35'0 0.0
2014-Jul-30 21:33N 37°57' E 023°35'0 0.0
2014-Jul-30 20:34N 37°57' E 023°35'0 0.0
2014-Jul-30 19:33N 37°57' E 023°35'0 0.2
2014-Jul-30 18:33N 37°57' E 023°35'7 7.2
2014-Jul-30 17:33N 37°50' E 023°32'8 8.4
2014-Jul-30 16:33N 37°52' E 023°21'9 8.6
2014-Jul-30 15:33N 37°54' E 023°11'4 0.6
2014-Jul-30 08:33N 37°55' E 023°05'0 0.0
2014-Jul-30 04:26N 37°55' E 023°05'10 1.4
2014-Jul-29 21:20N 37°53' E 023°18'7 9.1
2014-Jul-29 20:33N 37°51' E 023°26'9 9.0
2014-Jul-29 19:33N 37°48' E 023°37'8 8.3
2014-Jul-29 18:33N 37°42' E 023°44'8 8.6
2014-Jul-29 17:33N 37°38' E 023°54'26 8.7
2014-Jul-29 14:33N 37°31' E 024°26'9 9.1
2014-Jul-29 13:33N 37°31' E 024°37'9 9.1
2014-Jul-29 12:32N 37°31' E 024°49'7 7.5
2014-Jul-29 11:33N 37°28' E 024°58'3 2.6
2014-Jul-29 10:32N 37°26' E 024°56'0 0.0
2014-Jul-29 09:30N 37°26' E 024°56'0 0.0
2014-Jul-29 08:33N 37°26' E 024°56'0 0.0
2014-Jul-29 07:33N 37°26' E 024°56'0 0.0
2014-Jul-29 06:33N 37°26' E 024°56'3 3.5
2014-Jul-29 05:33N 37°27' E 025°01'9 8.8
2014-Jul-29 04:33N 37°27' E 025°12'6 6.2
2014-Jul-29 03:33N 37°28' E 025°19'0 0.0
2014-Jul-29 02:33N 37°28' E 025°19'0 0.0
2014-Jul-29 01:33N 37°28' E 025°19'0 0.0
2014-Jul-29 00:33N 37°28' E 025°19'0 0.0
2014-Jul-28 23:33N 37°28' E 025°19'0 0.0
2014-Jul-28 22:33N 37°28' E 025°19'0 0.0
2014-Jul-28 21:33N 37°28' E 025°19'1 1.3
2014-Jul-28 20:29N 37°26' E 025°19'0 0.0
2014-Jul-28 19:32N 37°26' E 025°19'0 0.0
2014-Jul-28 18:34N 37°26' E 025°19'0 0.0
2014-Jul-28 17:33N 37°26' E 025°19'0 0.0
2014-Jul-28 16:33N 37°26' E 025°19'0 0.0
2014-Jul-28 15:33N 37°26' E 025°19'0 0.0
2014-Jul-28 14:33N 37°26' E 025°19'4 3.7
2014-Jul-28 13:33N 37°29' E 025°16'6 6.0
2014-Jul-28 12:33N 37°32' E 025°09'0 0.0
2014-Jul-28 11:33N 37°32' E 025°09'0 0.0
2014-Jul-28 10:32N 37°32' E 025°09'0 0.0
2014-Jul-28 09:33N 37°32' E 025°09'6 5.9
2014-Jul-28 08:33N 37°35' E 025°03'55 4.2
2014-Jul-27 19:32N 38°26' E 025°30'9 8.8
2014-Jul-27 18:28N 38°31' E 025°40'9 8.8
2014-Jul-27 17:27N 38°36' E 025°50'  
2014-Jul-25 10:33N 38°25' E 025°52'37 4.0
2014-Jul-25 01:13N 37°51' E 025°33'7 7.4
2014-Jul-25 00:15N 37°45' E 025°29'5 7.4
2014-Jul-24 23:33N 37°40' E 025°25'8 7.8
2014-Jul-24 22:33N 37°33' E 025°21'6 5.5
2014-Jul-24 21:33N 37°28' E 025°20'0 0.0
2014-Jul-24 20:33N 37°28' E 025°20'1 0.7
2014-Jul-24 19:33N 37°27' E 025°19'1 0.7
2014-Jul-24 18:33N 37°28' E 025°20'0 0.0
2014-Jul-24 17:33N 37°28' E 025°20'0 0.0
2014-Jul-24 16:33N 37°28' E 025°20'1 0.7
2014-Jul-24 15:33N 37°27' E 025°19'8 7.9
2014-Jul-24 14:33N 37°20' E 025°16'9 8.8
2014-Jul-24 13:33N 37°12' E 025°10'7 6.9
2014-Jul-24 12:32N 37°05' E 025°09'0 0.2
2014-Jul-24 11:33N 37°05' E 025°09'0 0.0
2014-Jul-24 10:32N 37°05' E 025°09'0 0.0
2014-Jul-24 09:33N 37°05' E 025°09'0 0.0
2014-Jul-24 08:33N 37°05' E 025°09'0 0.0
2014-Jul-24 07:32N 37°05' E 025°09'0 0.0
2014-Jul-24 06:33N 37°05' E 025°09'0 0.0
2014-Jul-24 05:33N 37°05' E 025°09'1 0.6
2014-Jul-24 04:32N 37°06' E 025°08'0 0.0
2014-Jul-24 03:32N 37°06' E 025°08'0 0.0
2014-Jul-24 02:33N 37°06' E 025°08'0 0.0
2014-Jul-24 01:32N 37°06' E 025°08'0 0.0
2014-Jul-24 00:33N 37°06' E 025°08'0 0.0
2014-Jul-23 23:32N 37°06' E 025°08'5 4.9
2014-Jul-23 22:33N 37°09' E 025°12'7 7.5
2014-Jul-23 21:33N 37°07' E 025°21'1 1.3
2014-Jul-23 20:33N 37°06' E 025°22'0 0.4
2014-Jul-23 19:33N 37°06' E 025°22'0 0.0
2014-Jul-23 18:33N 37°06' E 025°22'0 0.0
2014-Jul-23 17:33N 37°06' E 025°22'0 0.0
2014-Jul-23 16:33N 37°06' E 025°22'1 0.7
2014-Jul-23 15:33N 37°06' E 025°22'0 0.0
2014-Jul-23 14:33N 37°06' E 025°22'0 0.0
2014-Jul-23 13:33N 37°06' E 025°22'7 6.9
2014-Jul-23 12:33N 37°12' E 025°17'8 8.3
2014-Jul-23 11:33N 37°17' E 025°09'8 8.3
2014-Jul-23 10:33N 37°23' E 025°02'5 5.2
2014-Jul-23 09:33N 37°26' E 024°56'0 0.0
2014-Jul-23 08:32N 37°26' E 024°56'0 0.0
2014-Jul-23 07:32N 37°26' E 024°56'0 0.0
2014-Jul-23 06:33N 37°26' E 024°56'0 0.0
2014-Jul-23 05:32N 37°26' E 024°56'0 0.0
2014-Jul-23 04:32N 37°26' E 024°56'1 1.1
2014-Jul-23 03:33N 37°27' E 024°57'7 5.9
2014-Jul-23 02:23N 37°32' E 024°52'7 8.4
2014-Jul-23 01:33N 37°32' E 024°43'9 8.5
2014-Jul-23 00:33N 37°32' E 024°32'8 8.3
2014-Jul-22 23:32N 37°31' E 024°22'8 7.6
2014-Jul-22 22:29N 37°32' E 024°12'18 9.0
2014-Jul-22 20:32N 37°38' E 023°51'8 8.1
2014-Jul-22 19:30N 37°41' E 023°42'8 8.3
2014-Jul-22 18:33N 37°49' E 023°38'8 8.2
2014-Jul-22 17:33N 37°56' E 023°35'1 0.9
2014-Jul-22 16:33N 37°57' E 023°35'0 0.0
2014-Jul-22 15:33N 37°57' E 023°35'0 0.0
2014-Jul-22 14:33N 37°57' E 023°35'0 0.0
2014-Jul-22 13:33N 37°57' E 023°35'0 0.0
2014-Jul-22 12:33N 37°57' E 023°35'0 0.0
2014-Jul-22 11:33N 37°57' E 023°35'0 0.0
2014-Jul-22 10:33N 37°57' E 023°35'0 0.0
2014-Jul-22 09:33N 37°57' E 023°35'0 0.0
2014-Jul-22 08:34N 37°57' E 023°35'0 0.0
2014-Jul-22 07:33N 37°57' E 023°35'0 0.0
2014-Jul-22 06:34N 37°57' E 023°35'0 0.0
2014-Jul-22 05:33N 37°57' E 023°35'4 4.3
2014-Jul-22 04:33N 37°53' E 023°37'  
Track history (hours):
 
Tides and Currents Weather Stations Pressure Air Temp Water Temp Dewpoint Dewpoint Depression Visibility Wind Speed Wind Dir Waves Ship Positions

Agios Georgios I

Last reported at 2014-Aug-01 04:33 UTC. Time now 2014-Aug-01 05:52 UTC.
Position N 37°17' E 025°02'.

Length 59 m; draft 5 m.

Type: Ship (hazmat cat B). MMSI: 239912000.

Date/timePositionNaut miles runAvg speedWind from/ knotsBaromVisibWave heightAir tempDewpointWater temp
2014-Aug-01 04:33N 37°17' E 025°02'9 8.6
2014-Aug-01 03:33N 37°25' E 024°58'2 2.2
2014-Aug-01 02:33N 37°26' E 024°56'0 0.0
2014-Aug-01 01:31N 37°26' E 024°56'0 0.0
2014-Aug-01 00:32N 37°26' E 024°56'0 0.0
2014-Jul-31 23:33N 37°26' E 024°56'0 0.0
2014-Jul-31 22:33N 37°26' E 024°56'0 0.0
2014-Jul-31 21:33N 37°26' E 024°56'0 0.0
2014-Jul-31 20:33N 37°26' E 024°56'0 0.0
2014-Jul-31 19:32N 37°26' E 024°56'2 2.3
2014-Jul-31 18:33N 37°28' E 024°58'8 7.5
2014-Jul-31 17:30N 37°32' E 024°49'9 9.5
2014-Jul-31 16:33N 37°32' E 024°38'9 8.9
2014-Jul-31 15:33N 37°31' E 024°27'10 8.9
2014-Jul-31 14:27N 37°31' E 024°15'8 8.8
2014-Jul-31 13:33N 37°32' E 024°05'8 5.3
2014-Jul-31 12:04N 37°32' E 023°55'4 6.9
2014-Jul-31 11:31N 37°36' E 023°55'9 8.7
2014-Jul-31 10:32N 37°39' E 023°44'8 8.3
2014-Jul-31 09:33N 37°46' E 023°39'9 8.5
2014-Jul-31 08:33N 37°54' E 023°35'4 3.5
2014-Jul-31 07:33N 37°57' E 023°35'0 0.0
2014-Jul-31 06:33N 37°57' E 023°35'0 0.0
2014-Jul-31 05:33N 37°57' E 023°35'0 0.0
2014-Jul-31 04:34N 37°57' E 023°35'0 0.0
2014-Jul-31 03:33N 37°57' E 023°35'0 0.2
2014-Jul-31 02:34N 37°57' E 023°35'0 0.0
2014-Jul-31 01:34N 37°57' E 023°35'0 0.0
2014-Jul-31 00:33N 37°57' E 023°35'0 0.0
2014-Jul-30 23:33N 37°57' E 023°35'0 0.0
2014-Jul-30 22:33N 37°57' E 023°35'0 0.0
2014-Jul-30 21:33N 37°57' E 023°35'0 0.0
2014-Jul-30 20:34N 37°57' E 023°35'0 0.0
2014-Jul-30 19:33N 37°57' E 023°35'0 0.2
2014-Jul-30 18:33N 37°57' E 023°35'7 7.2
2014-Jul-30 17:33N 37°50' E 023°32'8 8.4
2014-Jul-30 16:33N 37°52' E 023°21'9 8.6
2014-Jul-30 15:33N 37°54' E 023°11'4 0.6
2014-Jul-30 08:33N 37°55' E 023°05'0 0.0
2014-Jul-30 04:26N 37°55' E 023°05'10 1.4
2014-Jul-29 21:20N 37°53' E 023°18'7 9.1
2014-Jul-29 20:33N 37°51' E 023°26'9 9.0
2014-Jul-29 19:33N 37°48' E 023°37'8 8.3
2014-Jul-29 18:33N 37°42' E 023°44'8 8.6
2014-Jul-29 17:33N 37°38' E 023°54'26 8.7
2014-Jul-29 14:33N 37°31' E 024°26'9 9.1
2014-Jul-29 13:33N 37°31' E 024°37'9 9.1
2014-Jul-29 12:32N 37°31' E 024°49'7 7.5
2014-Jul-29 11:33N 37°28' E 024°58'3 2.6
2014-Jul-29 10:32N 37°26' E 024°56'0 0.0
2014-Jul-29 09:30N 37°26' E 024°56'0 0.0
2014-Jul-29 08:33N 37°26' E 024°56'0 0.0
2014-Jul-29 07:33N 37°26' E 024°56'0 0.0
2014-Jul-29 06:33N 37°26' E 024°56'3 3.5
2014-Jul-29 05:33N 37°27' E 025°01'9 8.8
2014-Jul-29 04:33N 37°27' E 025°12'6 6.2
2014-Jul-29 03:33N 37°28' E 025°19'0 0.0
2014-Jul-29 02:33N 37°28' E 025°19'0 0.0
2014-Jul-29 01:33N 37°28' E 025°19'0 0.0
2014-Jul-29 00:33N 37°28' E 025°19'0 0.0
2014-Jul-28 23:33N 37°28' E 025°19'0 0.0
2014-Jul-28 22:33N 37°28' E 025°19'0 0.0
2014-Jul-28 21:33N 37°28' E 025°19'1 1.3
2014-Jul-28 20:29N 37°26' E 025°19'0 0.0
2014-Jul-28 19:32N 37°26' E 025°19'0 0.0
2014-Jul-28 18:34N 37°26' E 025°19'0 0.0
2014-Jul-28 17:33N 37°26' E 025°19'0 0.0
2014-Jul-28 16:33N 37°26' E 025°19'0 0.0
2014-Jul-28 15:33N 37°26' E 025°19'0 0.0
2014-Jul-28 14:33N 37°26' E 025°19'4 3.7
2014-Jul-28 13:33N 37°29' E 025°16'6 6.0
2014-Jul-28 12:33N 37°32' E 025°09'0 0.0
2014-Jul-28 11:33N 37°32' E 025°09'0 0.0
2014-Jul-28 10:32N 37°32' E 025°09'0 0.0
2014-Jul-28 09:33N 37°32' E 025°09'6 5.9
2014-Jul-28 08:33N 37°35' E 025°03'55 4.2
2014-Jul-27 19:32N 38°26' E 025°30'9 8.8
2014-Jul-27 18:28N 38°31' E 025°40'9 8.8
2014-Jul-27 17:27N 38°36' E 025°50'  
2014-Jul-25 10:33N 38°25' E 025°52'37 4.0
2014-Jul-25 01:13N 37°51' E 025°33'7 7.4
2014-Jul-25 00:15N 37°45' E 025°29'5 7.4
2014-Jul-24 23:33N 37°40' E 025°25'8 7.8
2014-Jul-24 22:33N 37°33' E 025°21'6 5.5
2014-Jul-24 21:33N 37°28' E 025°20'0 0.0
2014-Jul-24 20:33N 37°28' E 025°20'1 0.7
2014-Jul-24 19:33N 37°27' E 025°19'1 0.7
2014-Jul-24 18:33N 37°28' E 025°20'0 0.0
2014-Jul-24 17:33N 37°28' E 025°20'0 0.0
2014-Jul-24 16:33N 37°28' E 025°20'1 0.7
2014-Jul-24 15:33N 37°27' E 025°19'8 7.9
2014-Jul-24 14:33N 37°20' E 025°16'9 8.8
2014-Jul-24 13:33N 37°12' E 025°10'7 6.9
2014-Jul-24 12:32N 37°05' E 025°09'0 0.2
2014-Jul-24 11:33N 37°05' E 025°09'0 0.0
2014-Jul-24 10:32N 37°05' E 025°09'0 0.0
2014-Jul-24 09:33N 37°05' E 025°09'0 0.0
2014-Jul-24 08:33N 37°05' E 025°09'0 0.0
2014-Jul-24 07:32N 37°05' E 025°09'0 0.0
2014-Jul-24 06:33N 37°05' E 025°09'0 0.0
2014-Jul-24 05:33N 37°05' E 025°09'1 0.6
2014-Jul-24 04:32N 37°06' E 025°08'0 0.0
2014-Jul-24 03:32N 37°06' E 025°08'0 0.0
2014-Jul-24 02:33N 37°06' E 025°08'0 0.0
2014-Jul-24 01:32N 37°06' E 025°08'0 0.0
2014-Jul-24 00:33N 37°06' E 025°08'0 0.0
2014-Jul-23 23:32N 37°06' E 025°08'5 4.9
2014-Jul-23 22:33N 37°09' E 025°12'7 7.5
2014-Jul-23 21:33N 37°07' E 025°21'1 1.3
2014-Jul-23 20:33N 37°06' E 025°22'0 0.4
2014-Jul-23 19:33N 37°06' E 025°22'0 0.0
2014-Jul-23 18:33N 37°06' E 025°22'0 0.0
2014-Jul-23 17:33N 37°06' E 025°22'0 0.0
2014-Jul-23 16:33N 37°06' E 025°22'1 0.7
2014-Jul-23 15:33N 37°06' E 025°22'0 0.0
2014-Jul-23 14:33N 37°06' E 025°22'0 0.0
2014-Jul-23 13:33N 37°06' E 025°22'7 6.9
2014-Jul-23 12:33N 37°12' E 025°17'8 8.3
2014-Jul-23 11:33N 37°17' E 025°09'8 8.3
2014-Jul-23 10:33N 37°23' E 025°02'5 5.2
2014-Jul-23 09:33N 37°26' E 024°56'0 0.0
2014-Jul-23 08:32N 37°26' E 024°56'0 0.0
2014-Jul-23 07:32N 37°26' E 024°56'0 0.0
2014-Jul-23 06:33N 37°26' E 024°56'0 0.0
2014-Jul-23 05:32N 37°26' E 024°56'0 0.0
2014-Jul-23 04:32N 37°26' E 024°56'1 1.1
2014-Jul-23 03:33N 37°27' E 024°57'7 5.9
2014-Jul-23 02:23N 37°32' E 024°52'7 8.4
2014-Jul-23 01:33N 37°32' E 024°43'9 8.5
2014-Jul-23 00:33N 37°32' E 024°32'8 8.3
2014-Jul-22 23:32N 37°31' E 024°22'8 7.6
2014-Jul-22 22:29N 37°32' E 024°12'18 9.0
2014-Jul-22 20:32N 37°38' E 023°51'8 8.1
2014-Jul-22 19:30N 37°41' E 023°42'8 8.3
2014-Jul-22 18:33N 37°49' E 023°38'8 8.2
2014-Jul-22 17:33N 37°56' E 023°35'1 0.9
2014-Jul-22 16:33N 37°57' E 023°35'0 0.0
2014-Jul-22 15:33N 37°57' E 023°35'0 0.0
2014-Jul-22 14:33N 37°57' E 023°35'0 0.0
2014-Jul-22 13:33N 37°57' E 023°35'0 0.0
2014-Jul-22 12:33N 37°57' E 023°35'0 0.0
2014-Jul-22 11:33N 37°57' E 023°35'0 0.0
2014-Jul-22 10:33N 37°57' E 023°35'0 0.0
2014-Jul-22 09:33N 37°57' E 023°35'0 0.0
2014-Jul-22 08:34N 37°57' E 023°35'0 0.0
2014-Jul-22 07:33N 37°57' E 023°35'0 0.0
2014-Jul-22 06:34N 37°57' E 023°35'0 0.0
2014-Jul-22 05:33N 37°57' E 023°35'4 4.3
2014-Jul-22 04:33N 37°53' E 023°37'  

Dump ship's entire track history